METAR AND TAF INFORMATION
METAR FOR LFTW
ADDS - METARS form results

(0357 UTC 07 October 2022)
Data provider http://aviationweather.gov/metar/data/
 
METAR text: LFTW 070330Z AUTO 01002KT CAVOK 13/12 Q1025 TEMPO 2000 BR
Conditions at: LFTW (NIMES/GARONS (NA, FR) observed 0330 UTC 07 October 2022
Temperature: 13.0°C (55°F)
Dewpoint: 12.0°C (54°F) [RH = 94%]
Pressure (altimeter): 30.27 inches Hg (1025.0 mb)
Winds: from the N (10 degrees) at 2 MPH (2 knots; 1.0 m/s)
Visibility: 6 or more miles (10+ km)
Ceiling: ceiling and visibility are OK
Clouds: unknown
Weather: no significant weather observed at this time

METAR text: LFTW 070300Z AUTO 04003KT CAVOK 14/13 Q1025 TEMPO 2000 BR
Conditions at: LFTW (NIMES/GARONS (NA, FR) observed 0300 UTC 07 October 2022
Temperature: 14.0°C (57°F)
Dewpoint: 13.0°C (55°F) [RH = 94%]
Pressure (altimeter): 30.27 inches Hg (1025.0 mb)
Winds: from the NE (40 degrees) at 3 MPH (3 knots; 1.5 m/s)
Visibility: 6 or more miles (10+ km)
Ceiling: ceiling and visibility are OK
Clouds: unknown
Weather: no significant weather observed at this time

Forecast for: LFTW (NIMES/GARONS (NA, FR)
Text: TAF LFTW 070200Z 0703/0803 04005KT CAVOK
Forecast period: 0300 to 1800 UTC 07 October 2022
Forecast type: FROM: standard forecast or significant change
Winds: from the NE (40 degrees) at 6 MPH (5 knots; 2.6 m/s)
Visibility: 6 or more miles (10+ km)
Ceiling: unknown
Clouds: missing
Weather: NSW  (no significant weather)
Text: PROB30
Forecast period: 0300 to 0600 UTC 07 October 2022
Forecast type: TEMPORARY: The following changes expected for less than half the time period
Visibility: 1.24 miles (2.00 km)
Ceiling: unknown
Clouds: missing
Weather: BR  (mist)
Text: TEMPO 0703/0706 2000 BR
Forecast period: 1800 UTC 07 October 2022 to 0300 UTC 08 October 2022
Forecast type: BECOMING: Conditions expected to become as follows by 2000 UTC 07 October 2022
Winds: from the NE (40 degrees) at 6 MPH (5 knots; 2.6 m/s)
Visibility: 6 or more miles (10+ km)
Ceiling: 1000 feet AGL
Clouds: broken clouds at 1000 feet AGL
Weather: NSW  (no significant weather)
Text: BECMG 0718/0720 BKN010
Forecast period: 0000 to 0300 UTC 08 October 2022
Forecast type: TEMPORARY: The following changes expected for less than half the time period
Visibility: 1.86 miles (2.99 km)
Ceiling: unknown
Clouds: missing
Weather: BR  (mist)

 AIRPORT MAP

 RUNWAY INFORMATION
Runway 18 Runway length 8005 ft Runway width 148 ft
Runway elevation 301 ft Runway displaced threshold 0 ft Runway heading 177
Runway 36 Runway length 8005 ft Runway width 148 ft
Runway elevation 309 ft Runway displaced threshold 0 ft Runway heading 357

 AIRPORT FREQUENCIES
Type APP Name APP Frequency 119.7 MHZ
Type ATIS Name ATIS Frequency 129.35 MHZ
Type GND Name GND Frequency 121.8 MHZ
Type TWR Name TWR Frequency 123.2 MHZ

 AIRPORT NEAR NAVIGATION AIDS
Type NDB Name Nimes/Garons Frequency 354 KHZ
Type TACAN Name Nimes Frequency 111600 KHZ



Powered by Virtual Airlines Manager [v2.6.2]